createdAt,value
2022-12-07T00:01:14.095Z,70.28
2022-12-07T00:03:45.926Z,71.12
2022-12-07T00:06:13.752Z,71.14
2022-12-07T00:08:49.695Z,71.85
2022-12-07T00:11:18.166Z,71.89
2022-12-07T00:13:45.281Z,72.17
2022-12-07T00:16:16.583Z,71.51
2022-12-07T00:18:44.069Z,74.08
2022-12-07T00:21:15.355Z,73.94
2022-12-07T00:23:42.862Z,71.74
2022-12-07T00:26:17.366Z,71.07
2022-12-07T00:28:55.045Z,70.42
2022-12-07T00:31:23.798Z,70.56
2022-12-07T00:33:50.792Z,70.97
2022-12-07T00:36:37.838Z,72.34
2022-12-07T00:39:04.528Z,72.08
2022-12-07T00:41:31.595Z,74.79
2022-12-07T00:44:04.029Z,73.36
2022-12-07T00:46:30.917Z,72.08
2022-12-07T00:48:58.324Z,73.18
2022-12-07T00:51:26.278Z,72.33
2022-12-07T00:53:53.234Z,73.02
2022-12-07T00:56:21.121Z,74.80
2022-12-07T00:58:54.687Z,73.38
2022-12-07T01:01:21.566Z,73.89
2022-12-07T01:03:48.567Z,73.07
2022-12-07T01:06:16.579Z,73.32
2022-12-07T01:08:43.275Z,73.70
2022-12-07T01:11:12.702Z,72.77
2022-12-07T01:13:39.433Z,72.44
2022-12-07T01:16:06.946Z,72.78
2022-12-07T01:18:34.929Z,72.04
2022-12-07T01:21:06.030Z,71.90
2022-12-07T01:23:33.377Z,71.68
2022-12-07T01:26:01.891Z,71.06
2022-12-07T01:28:34.281Z,70.79
2022-12-07T01:31:18.499Z,70.12
2022-12-07T01:33:46.841Z,69.80
2022-12-07T01:36:18.016Z,69.62
2022-12-07T01:38:45.730Z,69.47
2022-12-07T01:41:13.012Z,69.19
2022-12-07T01:44:02.863Z,68.93
2022-12-07T01:46:30.093Z,69.04
2022-12-07T01:48:56.980Z,68.67
2022-12-07T01:51:24.586Z,68.39
2022-12-07T01:53:51.584Z,68.59
2022-12-07T01:56:21.415Z,69.01
2022-12-07T01:58:48.907Z,69.75
2022-12-07T02:01:16.355Z,74.50
2022-12-07T02:03:44.123Z,71.04
2022-12-07T02:06:12.850Z,70.75
2022-12-07T02:08:39.690Z,70.87
2022-12-07T02:11:08.515Z,70.45
2022-12-07T02:13:36.746Z,71.01
2022-12-07T02:16:22.655Z,76.19
2022-12-07T02:19:00.546Z,75.66
2022-12-07T02:21:42.789Z,73.68
2022-12-07T02:24:15.811Z,73.20
2022-12-07T02:27:01.411Z,74.24
2022-12-07T02:29:47.065Z,75.49
2022-12-07T02:32:13.968Z,75.40
2022-12-07T02:34:48.835Z,74.42
2022-12-07T02:37:35.840Z,74.43
2022-12-07T02:40:07.217Z,74.20
2022-12-07T02:42:39.705Z,73.29
2022-12-07T02:45:08.052Z,74.09
2022-12-07T02:47:35.705Z,74.90
2022-12-07T02:50:05.320Z,74.75
2022-12-07T02:52:33.233Z,74.02
2022-12-07T02:55:00.409Z,75.41
2022-12-07T02:57:42.419Z,75.75
2022-12-07T03:00:15.905Z,75.37
2022-12-07T03:03:00.046Z,76.88
2022-12-07T03:05:34.885Z,75.41
2022-12-07T03:08:04.762Z,74.31
2022-12-07T03:10:37.648Z,74.08
2022-12-07T03:13:14.879Z,76.11
2022-12-07T03:15:47.066Z,77.33
2022-12-07T03:18:15.192Z,75.67
2022-12-07T03:20:45.259Z,77.12
2022-12-07T03:23:14.345Z,79.25
2022-12-07T03:25:46.967Z,79.64
2022-12-07T03:28:16.345Z,80.33
2022-12-07T03:30:43.182Z,78.14
2022-12-07T03:33:22.117Z,77.81
2022-12-07T03:36:07.638Z,80.73
2022-12-07T03:38:38.548Z,81.29
2022-12-07T03:41:08.866Z,81.31
2022-12-07T03:43:36.959Z,78.96
2022-12-07T03:46:22.353Z,77.96
2022-12-07T03:48:51.317Z,79.23
2022-12-07T03:51:27.839Z,83.86
2022-12-07T03:54:10.693Z,86.53
2022-12-07T03:56:39.511Z,84.46
2022-12-07T03:59:06.768Z,81.81
2022-12-07T04:01:33.561Z,80.32
2022-12-07T04:04:00.658Z,81.75
2022-12-07T04:06:27.481Z,80.19
2022-12-07T04:08:54.624Z,78.93
2022-12-07T04:11:21.702Z,78.98
2022-12-07T04:14:20.364Z,78.83
2022-12-07T04:16:50.384Z,78.61
2022-12-07T04:19:18.025Z,77.69
2022-12-07T04:22:06.282Z,78.12
2022-12-07T04:24:42.793Z,77.84
2022-12-07T04:27:09.713Z,77.35
2022-12-07T04:29:38.757Z,77.82
2022-12-07T04:32:06.753Z,77.07
2022-12-07T04:34:33.655Z,76.71
2022-12-07T04:37:00.483Z,75.96
2022-12-07T04:39:28.826Z,76.58
2022-12-07T04:41:56.245Z,76.07
2022-12-07T04:44:24.130Z,75.92
2022-12-07T04:46:51.700Z,76.37
2022-12-07T04:49:18.546Z,76.41
2022-12-07T04:51:46.020Z,75.90
2022-12-07T04:54:13.655Z,76.48
2022-12-07T04:56:40.688Z,75.91
2022-12-07T04:59:07.666Z,77.77
2022-12-07T05:01:38.330Z,76.97
2022-12-07T05:04:05.235Z,76.67
2022-12-07T05:06:38.100Z,80.06
2022-12-07T05:09:06.149Z,78.67
2022-12-07T05:11:41.650Z,78.42
2022-12-07T05:14:11.652Z,80.54
2022-12-07T05:16:39.552Z,79.20
2022-12-07T05:19:09.984Z,79.88
2022-12-07T05:21:37.277Z,80.49
2022-12-07T05:24:04.297Z,80.22
2022-12-07T05:26:31.496Z,78.52
2022-12-07T05:28:58.603Z,78.57
2022-12-07T05:31:26.234Z,78.53
2022-12-07T05:33:52.940Z,78.20
2022-12-07T05:36:19.982Z,78.31
2022-12-07T05:38:47.470Z,78.17
2022-12-07T05:41:35.861Z,77.27
2022-12-07T05:44:20.838Z,77.43
2022-12-07T05:46:57.938Z,77.22
2022-12-07T05:49:24.784Z,76.79
2022-12-07T05:52:11.606Z,75.17
2022-12-07T05:54:38.548Z,76.24
2022-12-07T05:57:05.484Z,76.51
2022-12-07T05:59:32.741Z,76.27
2022-12-07T06:02:02.020Z,75.67
2022-12-07T06:04:32.869Z,75.72
2022-12-07T06:07:19.528Z,76.41
2022-12-07T06:09:46.616Z,76.25
2022-12-07T06:12:40.020Z,77.68
2022-12-07T06:15:26.739Z,75.80
2022-12-07T06:17:53.657Z,76.00
2022-12-07T06:20:20.898Z,76.24
2022-12-07T06:22:47.802Z,79.18
2022-12-07T06:25:16.992Z,79.95
2022-12-07T06:27:43.877Z,78.55
2022-12-07T06:30:11.869Z,78.95
2022-12-07T06:32:43.064Z,76.82
2022-12-07T06:35:14.956Z,77.85
2022-12-07T06:37:43.792Z,77.92
2022-12-07T06:40:10.842Z,77.76
2022-12-07T06:42:37.797Z,77.45
2022-12-07T06:45:05.170Z,77.29
2022-12-07T06:47:42.555Z,76.60
2022-12-07T06:50:16.446Z,76.85
2022-12-07T06:52:43.213Z,77.08
2022-12-07T06:55:10.081Z,76.44
2022-12-07T06:57:37.885Z,76.15
2022-12-07T07:00:05.795Z,76.61
2022-12-07T07:02:32.886Z,76.33
2022-12-07T07:04:59.651Z,76.66
2022-12-07T07:07:26.562Z,76.76
2022-12-07T07:09:53.410Z,75.81
2022-12-07T07:12:20.241Z,76.55
2022-12-07T07:14:46.922Z,76.52
2022-12-07T07:17:14.308Z,77.03
2022-12-07T07:19:41.399Z,76.92
2022-12-07T07:22:09.855Z,76.70
2022-12-07T07:24:37.893Z,77.39
2022-12-07T07:27:06.075Z,75.04
2022-12-07T07:29:35.288Z,75.01
2022-12-07T07:32:06.731Z,74.09
2022-12-07T07:34:33.838Z,74.36
2022-12-07T07:37:02.196Z,74.41
2022-12-07T07:39:31.305Z,75.23
2022-12-07T07:41:58.056Z,74.52
2022-12-07T07:44:26.214Z,73.86
2022-12-07T07:46:55.712Z,74.37
2022-12-07T07:49:22.505Z,76.08
2022-12-07T07:51:49.242Z,79.80
2022-12-07T07:54:16.047Z,77.99
2022-12-07T07:56:42.811Z,77.79
2022-12-07T07:59:09.545Z,76.02
2022-12-07T08:01:38.476Z,79.93
2022-12-07T08:04:05.324Z,78.58
2022-12-07T08:06:32.715Z,79.45
2022-12-07T08:08:59.878Z,77.64
2022-12-07T08:11:26.570Z,77.64
2022-12-07T08:13:53.347Z,77.46
2022-12-07T08:16:20.263Z,77.91
2022-12-07T08:18:47.564Z,77.77
2022-12-07T08:21:15.313Z,78.48
2022-12-07T08:23:42.383Z,78.43
2022-12-07T08:26:11.595Z,78.23
2022-12-07T08:28:38.523Z,77.49
2022-12-07T08:31:13.465Z,77.77
2022-12-07T08:33:41.447Z,76.84
2022-12-07T08:36:12.497Z,75.33
2022-12-07T08:38:40.448Z,76.72
2022-12-07T08:41:10.090Z,76.55
2022-12-07T08:43:37.702Z,75.77
2022-12-07T08:46:05.575Z,75.06
2022-12-07T08:48:32.866Z,75.69
2022-12-07T08:51:00.155Z,74.80
2022-12-07T08:53:27.030Z,74.14
2022-12-07T08:55:53.953Z,74.65
2022-12-07T08:58:22.757Z,74.16
2022-12-07T09:00:49.700Z,75.06
2022-12-07T09:03:18.525Z,74.15
2022-12-07T09:05:46.538Z,73.51
2022-12-07T09:08:13.566Z,73.34
2022-12-07T09:10:42.580Z,74.30
2022-12-07T09:13:09.789Z,73.96
2022-12-07T09:15:45.695Z,75.04
2022-12-07T09:18:12.599Z,74.22
2022-12-07T09:20:39.566Z,73.57
2022-12-07T09:23:09.465Z,72.59
2022-12-07T09:25:36.356Z,72.65
2022-12-07T09:28:03.190Z,72.74
2022-12-07T09:30:30.506Z,72.19
2022-12-07T09:32:58.209Z,71.49
2022-12-07T09:35:25.869Z,71.35
2022-12-07T09:37:52.784Z,71.71
2022-12-07T09:40:21.478Z,72.19
2022-12-07T09:42:53.137Z,72.17
2022-12-07T09:45:27.045Z,70.13
2022-12-07T09:47:53.943Z,70.87
2022-12-07T09:50:23.251Z,71.68
2022-12-07T09:52:50.423Z,70.51
2022-12-07T09:55:20.816Z,69.65
2022-12-07T09:57:47.844Z,70.09
2022-12-07T10:00:18.272Z,69.55
2022-12-07T10:02:53.097Z,69.95
2022-12-07T10:05:24.797Z,70.13
2022-12-07T10:07:51.897Z,69.43
2022-12-07T10:10:43.424Z,69.24
2022-12-07T10:13:15.751Z,69.34
2022-12-07T10:15:48.886Z,68.18
2022-12-07T10:18:40.985Z,68.80
2022-12-07T10:21:10.325Z,67.51
2022-12-07T10:23:38.312Z,69.02
2022-12-07T10:26:27.627Z,68.43
2022-12-07T10:29:01.557Z,67.27
2022-12-07T10:31:54.060Z,69.25
2022-12-07T10:34:36.424Z,66.00
2022-12-07T10:37:18.628Z,65.99
2022-12-07T10:39:50.459Z,66.08
2022-12-07T10:42:19.510Z,65.92
2022-12-07T10:44:49.211Z,64.81
2022-12-07T10:47:38.343Z,65.63
2022-12-07T10:50:08.910Z,67.34
2022-12-07T10:52:45.800Z,65.91
2022-12-07T10:55:31.206Z,65.81
2022-12-07T10:58:08.784Z,67.79
2022-12-07T11:00:42.196Z,69.48
2022-12-07T11:03:25.002Z,68.55
2022-12-07T11:06:06.872Z,69.05
2022-12-07T11:08:47.659Z,67.61
2022-12-07T11:11:33.419Z,66.53
2022-12-07T11:14:21.539Z,64.78
2022-12-07T11:17:01.454Z,66.29
2022-12-07T11:19:28.875Z,66.51
2022-12-07T11:22:07.744Z,66.53
2022-12-07T11:24:44.798Z,67.69
2022-12-07T11:27:35.503Z,67.06
2022-12-07T11:30:02.696Z,66.12
2022-12-07T11:32:48.991Z,65.99
2022-12-07T11:35:19.306Z,65.60
2022-12-07T11:37:48.816Z,66.89
2022-12-07T11:40:16.593Z,64.56
2022-12-07T11:42:48.534Z,66.39
2022-12-07T11:45:26.958Z,66.25
2022-12-07T11:48:04.241Z,64.72
2022-12-07T11:50:46.388Z,65.02
2022-12-07T11:53:23.859Z,64.58
2022-12-07T11:56:03.580Z,65.13
2022-12-07T11:58:31.059Z,64.89
2022-12-07T12:01:08.514Z,63.88
2022-12-07T12:03:53.529Z,65.05
2022-12-07T12:06:41.907Z,65.59
2022-12-07T12:09:41.347Z,64.36
2022-12-07T12:15:22.387Z,63.75
2022-12-07T12:17:55.285Z,63.32
2022-12-07T12:20:29.660Z,63.36
2022-12-07T12:23:22.963Z,63.12
2022-12-07T12:26:03.423Z,63.54
2022-12-07T12:28:50.543Z,63.13
2022-12-07T12:31:23.538Z,63.54
2022-12-07T12:33:56.362Z,62.49
2022-12-07T12:36:37.201Z,61.84
2022-12-07T12:39:10.599Z,60.76
2022-12-07T12:41:42.724Z,61.92
2022-12-07T12:44:15.893Z,59.71
2022-12-07T12:46:53.079Z,55.88
2022-12-07T12:49:23.195Z,55.89
2022-12-07T12:51:53.876Z,55.50
2022-12-07T12:54:34.292Z,56.46
2022-12-07T12:57:07.101Z,57.10
2022-12-07T12:59:38.881Z,57.55
2022-12-07T13:02:08.966Z,58.54
2022-12-07T13:04:39.918Z,57.48
2022-12-07T13:07:11.863Z,56.45
2022-12-07T13:09:44.251Z,56.19
2022-12-07T13:12:15.606Z,55.63
2022-12-07T13:15:03.701Z,57.33
2022-12-07T13:17:33.826Z,56.47
2022-12-07T13:20:05.209Z,54.69
2022-12-07T13:22:31.881Z,53.73
2022-12-07T13:25:15.844Z,54.68
2022-12-07T13:27:46.978Z,55.22
2022-12-07T13:30:19.693Z,54.52
2022-12-07T13:33:00.142Z,55.35
2022-12-07T13:35:31.042Z,55.01
2022-12-07T13:37:57.852Z,54.86
2022-12-07T13:40:25.386Z,55.65
2022-12-07T13:43:18.587Z,55.60
2022-12-07T13:45:53.212Z,54.82
2022-12-07T13:48:23.308Z,54.03
2022-12-07T13:50:57.170Z,54.12
2022-12-07T13:53:24.539Z,54.08
2022-12-07T13:55:54.511Z,54.42
2022-12-07T13:58:22.741Z,54.53
2022-12-07T14:00:51.708Z,54.65
2022-12-07T14:03:19.947Z,55.64
2022-12-07T14:05:46.876Z,55.15
2022-12-07T14:08:14.227Z,55.45
2022-12-07T14:10:56.627Z,55.71
2022-12-07T14:13:40.654Z,55.85
2022-12-07T14:16:20.438Z,55.14
2022-12-07T14:18:47.572Z,54.86
2022-12-07T14:21:14.353Z,54.23
2022-12-07T14:23:41.865Z,55.16
2022-12-07T14:26:15.543Z,55.42
2022-12-07T14:28:43.376Z,55.17
2022-12-07T14:31:29.635Z,55.63
2022-12-07T14:34:00.543Z,55.92
2022-12-07T14:36:27.395Z,57.46
2022-12-07T14:38:57.432Z,57.43
2022-12-07T14:41:43.395Z,56.83
2022-12-07T14:44:24.026Z,56.41
2022-12-07T14:49:41.886Z,57.24
2022-12-07T14:55:00.463Z,58.92
2022-12-07T14:57:27.329Z,58.18
2022-12-07T14:59:56.330Z,60.21
2022-12-07T15:02:23.007Z,59.89
2022-12-07T15:04:49.914Z,60.02
2022-12-07T15:07:23.221Z,61.26
2022-12-07T15:09:49.967Z,61.58
2022-12-07T15:12:19.229Z,60.29
2022-12-07T15:14:46.806Z,60.86
2022-12-07T15:17:26.432Z,60.98
2022-12-07T15:19:54.859Z,62.16
2022-12-07T15:22:24.461Z,61.99
2022-12-07T15:24:51.235Z,62.89
2022-12-07T15:27:17.912Z,62.68
2022-12-07T15:29:44.780Z,64.28
2022-12-07T15:32:11.687Z,64.21
2022-12-07T15:34:40.661Z,65.12
2022-12-07T15:37:07.928Z,65.24
2022-12-07T15:39:36.772Z,64.86
2022-12-07T15:42:03.566Z,64.87
2022-12-07T15:44:50.971Z,65.02
2022-12-07T15:47:17.699Z,65.03
2022-12-07T15:49:44.594Z,65.33
2022-12-07T15:52:11.270Z,65.05
2022-12-07T15:54:38.027Z,65.20
2022-12-07T15:57:04.723Z,66.10
2022-12-07T15:59:31.598Z,65.39
2022-12-07T16:01:58.441Z,65.17
2022-12-07T16:04:25.667Z,64.87
2022-12-07T16:06:52.595Z,64.35
2022-12-07T16:09:19.851Z,64.47
2022-12-07T16:11:48.813Z,64.46
2022-12-07T16:14:15.490Z,64.46
2022-12-07T16:16:43.034Z,64.04
2022-12-07T16:19:10.016Z,64.10
2022-12-07T16:21:39.072Z,63.81
2022-12-07T16:24:06.391Z,64.50
2022-12-07T16:26:33.225Z,64.64
2022-12-07T16:28:59.903Z,64.25
2022-12-07T16:31:27.770Z,63.57
2022-12-07T16:33:57.830Z,63.83
2022-12-07T16:37:02.166Z,64.67
2022-12-07T16:39:15.347Z,64.87
2022-12-07T16:41:42.308Z,64.32
2022-12-07T16:44:11.263Z,64.40
2022-12-07T16:46:38.131Z,64.07
2022-12-07T16:49:05.260Z,63.48
2022-12-07T16:51:32.345Z,63.68
2022-12-07T16:53:59.134Z,64.01
2022-12-07T16:56:27.970Z,64.04
2022-12-07T16:59:09.546Z,63.25
2022-12-07T17:01:37.206Z,63.73
2022-12-07T17:04:07.623Z,64.87
2022-12-07T17:06:34.460Z,65.47
2022-12-07T17:09:01.325Z,65.24
2022-12-07T17:11:29.842Z,65.39
2022-12-07T17:14:15.410Z,66.42
2022-12-07T17:16:44.515Z,66.07
2022-12-07T17:19:12.777Z,65.27
2022-12-07T17:21:39.536Z,65.53
2022-12-07T17:24:08.297Z,65.12
2022-12-07T17:26:36.227Z,65.50
2022-12-07T17:29:04.704Z,65.07
2022-12-07T17:31:33.373Z,65.87
2022-12-07T17:34:00.325Z,66.73
2022-12-07T17:36:28.300Z,66.32
2022-12-07T17:38:55.717Z,66.34
2022-12-07T17:41:42.989Z,65.69
2022-12-07T17:44:11.216Z,65.54
2022-12-07T17:46:38.602Z,68.22
2022-12-07T17:49:06.555Z,66.00
2022-12-07T17:51:51.924Z,66.57
2022-12-07T17:54:19.222Z,67.33
2022-12-07T17:57:02.617Z,67.45
2022-12-07T17:59:29.503Z,67.63
2022-12-07T18:01:58.510Z,66.76
2022-12-07T18:04:25.309Z,67.12
2022-12-07T18:06:52.749Z,66.96
2022-12-07T18:09:19.880Z,66.97
2022-12-07T18:11:47.312Z,66.71
2022-12-07T18:14:14.108Z,67.33
2022-12-07T18:16:43.135Z,67.47
2022-12-07T18:19:13.766Z,67.86
2022-12-07T18:21:40.604Z,67.69
2022-12-07T18:24:07.602Z,68.51
2022-12-07T18:26:36.103Z,68.25
2022-12-07T18:29:03.692Z,67.85
2022-12-07T18:31:30.770Z,67.63
2022-12-07T18:34:01.050Z,67.45
2022-12-07T18:36:28.554Z,66.35
2022-12-07T18:38:55.379Z,66.54
2022-12-07T18:41:23.321Z,67.33
2022-12-07T18:43:49.994Z,67.40
2022-12-07T18:46:18.991Z,67.79
2022-12-07T18:48:46.948Z,67.79
2022-12-07T18:51:14.584Z,68.18
2022-12-07T18:53:41.622Z,68.02
2022-12-07T18:56:14.679Z,68.44
2022-12-07T18:59:01.238Z,68.90
2022-12-07T19:01:30.535Z,69.11
2022-12-07T19:03:58.173Z,68.72
2022-12-07T19:06:24.984Z,69.90
2022-12-07T19:08:51.733Z,68.38
2022-12-07T19:11:38.339Z,72.69
2022-12-07T19:14:05.136Z,75.38
2022-12-07T19:16:32.319Z,71.67
2022-12-07T19:18:59.014Z,72.53
2022-12-07T19:21:25.803Z,71.22
2022-12-07T19:23:52.664Z,71.31
2022-12-07T19:26:19.541Z,70.32
2022-12-07T19:28:46.271Z,70.59
2022-12-07T19:31:13.589Z,70.34
2022-12-07T19:33:40.652Z,70.14
2022-12-07T19:36:07.956Z,69.56
2022-12-07T19:38:35.043Z,69.39
2022-12-07T19:41:30.868Z,68.13
2022-12-07T19:43:57.718Z,71.68
2022-12-07T19:46:25.159Z,69.91
2022-12-07T19:48:51.899Z,70.58
2022-12-07T19:51:18.762Z,71.55
2022-12-07T19:53:46.583Z,70.40
2022-12-07T19:56:20.750Z,70.25
2022-12-07T19:58:48.280Z,69.43
2022-12-07T20:01:16.060Z,69.07
2022-12-07T20:03:42.774Z,68.94
2022-12-07T20:06:17.435Z,69.21
2022-12-07T20:08:44.988Z,68.64
2022-12-07T20:11:30.436Z,68.77
2022-12-07T20:13:57.180Z,68.18
2022-12-07T20:16:24.658Z,68.08
2022-12-07T20:18:57.355Z,68.26
2022-12-07T20:21:25.186Z,67.92
2022-12-07T20:23:52.360Z,67.62
2022-12-07T20:26:19.536Z,67.79
2022-12-07T20:28:46.927Z,67.83
2022-12-07T20:31:14.713Z,67.63
2022-12-07T20:33:42.301Z,67.33
2022-12-07T20:36:10.115Z,67.10
2022-12-07T20:38:37.137Z,66.95
2022-12-07T20:41:05.912Z,66.81
2022-12-07T20:43:33.105Z,66.77
2022-12-07T20:46:00.245Z,66.65
2022-12-07T20:48:45.181Z,66.92
2022-12-07T20:51:16.375Z,66.75
2022-12-07T20:53:43.199Z,66.26
2022-12-07T20:56:29.357Z,66.28
2022-12-07T20:58:56.985Z,66.04
2022-12-07T21:01:23.968Z,65.48
2022-12-07T21:03:54.790Z,65.62
2022-12-07T21:06:22.298Z,66.09
2022-12-07T21:08:49.981Z,66.26
2022-12-07T21:11:18.755Z,65.84
2022-12-07T21:13:45.761Z,65.79
2022-12-07T21:16:15.455Z,66.09
2022-12-07T21:18:42.343Z,65.61
2022-12-07T21:21:10.781Z,67.65
2022-12-07T21:23:37.992Z,67.33
2022-12-07T21:26:12.270Z,68.14
2022-12-07T21:28:59.050Z,68.29
2022-12-07T21:31:26.617Z,67.33
2022-12-07T21:33:53.719Z,66.26
2022-12-07T21:36:21.406Z,66.54
2022-12-07T21:38:48.726Z,66.92
2022-12-07T21:41:25.465Z,68.14
2022-12-07T21:43:52.334Z,67.66
2022-12-07T21:46:19.916Z,68.38
2022-12-07T21:48:54.136Z,69.25
2022-12-07T21:51:22.293Z,70.75
2022-12-07T21:53:50.142Z,71.78
2022-12-07T21:56:18.971Z,71.41
2022-12-07T21:58:45.971Z,73.81
2022-12-07T22:01:23.005Z,78.53
2022-12-07T22:03:50.153Z,76.16
2022-12-07T22:06:17.599Z,77.23
2022-12-07T22:08:44.404Z,82.91
2022-12-07T22:11:12.520Z,85.14
2022-12-07T22:13:58.583Z,82.64
2022-12-07T22:16:26.213Z,84.54
2022-12-07T22:18:54.094Z,79.55
2022-12-07T22:21:20.968Z,78.69
2022-12-07T22:23:47.614Z,80.15
2022-12-07T22:26:17.582Z,79.36
2022-12-07T22:29:02.102Z,79.38
2022-12-07T22:31:31.159Z,81.84
2022-12-07T22:33:58.103Z,79.96
2022-12-07T22:36:25.175Z,79.36
2022-12-07T22:38:52.065Z,82.18
2022-12-07T22:41:23.367Z,82.89
2022-12-07T22:43:50.864Z,80.67
2022-12-07T22:46:37.943Z,80.44
2022-12-07T22:49:13.153Z,78.56
2022-12-07T22:51:40.672Z,78.35
2022-12-07T22:54:09.355Z,77.49
2022-12-07T22:56:36.997Z,78.78
2022-12-07T22:59:07.293Z,77.09
2022-12-07T23:01:34.613Z,76.92
2022-12-07T23:04:01.495Z,77.25
2022-12-07T23:06:29.675Z,77.07
2022-12-07T23:08:56.985Z,77.84
2022-12-07T23:11:44.054Z,77.56
2022-12-07T23:14:18.309Z,77.43
2022-12-07T23:16:45.142Z,77.27
2022-12-07T23:19:12.414Z,76.77
2022-12-07T23:21:40.416Z,77.01
2022-12-07T23:24:07.520Z,76.33
2022-12-07T23:26:34.175Z,76.47
2022-12-07T23:29:03.541Z,75.99
2022-12-07T23:31:30.346Z,76.14
2022-12-07T23:33:57.284Z,75.24
2022-12-07T23:36:25.869Z,75.21
2022-12-07T23:38:54.278Z,75.13
2022-12-07T23:41:22.863Z,74.96
2022-12-07T23:43:49.983Z,74.12
2022-12-07T23:46:28.729Z,74.35
2022-12-07T23:48:56.689Z,74.41
2022-12-07T23:51:24.261Z,74.33
2022-12-07T23:53:51.815Z,74.67
2022-12-07T23:56:19.897Z,74.01
2022-12-07T23:58:47.464Z,74.00
